Time;durP1;ratioP1;P1;durP2;ratioP2;P2;SDS_P1;SDS_P2;PMS_P1;PMS_P2;Temp;Humidity;BMP_temperature;BMP_pressure;BME280_temperature;BME280_humidity;BME280_pressure;Samples;Min_cycle;Max_cycle;Signal;HPM_P1;HPM_P2
2022/10/13 00:02:19;;;;;;;;;41.50;35.00;;;;;;;;5088258;27;46360;-76
2022/10/13 00:04:45;;;;;;;;;34.75;32.50;;;;;;;;5091951;27;45334;-76
2022/10/13 00:07:10;;;;;;;;;45.50;38.25;;;;;;;;5088797;27;45664;-76
2022/10/13 00:09:35;;;;;;;;;42.25;36.00;;;;;;;;5093854;27;45548;-76
2022/10/13 00:12:00;;;;;;;;;41.50;35.50;;;;;;;;5068614;27;48139;-76
2022/10/13 00:14:25;;;;;;;;;41.50;35.25;;;;;;;;5091757;27;45571;-76
2022/10/13 00:16:51;;;;;;;;;48.25;40.00;;;;;;;;5093259;27;45685;-76
2022/10/13 00:19:16;;;;;;;;;41.00;36.50;;;;;;;;5092670;27;45557;-76
2022/10/13 00:21:41;;;;;;;;;50.00;39.75;;;;;;;;5094516;27;46030;-76
2022/10/13 00:24:09;;;;;;;;;44.50;36.50;;;;;;;;5091626;27;45413;-77
2022/10/13 00:26:34;;;;;;;;;46.50;36.50;;;;;;;;5087876;27;45406;-76
2022/10/13 00:28:59;;;;;;;;;43.75;37.00;;;;;;;;5090678;27;45475;-76
2022/10/13 00:31:26;;;;;;;;;44.50;36.50;;;;;;;;5090569;27;45369;-76
2022/10/13 00:33:51;;;;;;;;;48.25;37.25;;;;;;;;5086991;27;45266;-76
2022/10/13 00:36:17;;;;;;;;;44.75;35.75;;;;;;;;5072729;27;45618;-76
2022/10/13 00:38:42;;;;;;;;;43.00;35.75;;;;;;;;5070283;27;46214;-76
2022/10/13 00:41:08;;;;;;;;;40.75;35.75;;;;;;;;5079099;27;46800;-76
2022/10/13 00:43:54;;;;;;;;;40.50;35.75;;;;;;;;5090833;27;45302;-76
2022/10/13 00:46:23;;;;;;;;;34.75;30.75;;;;;;;;5096877;27;45232;-76
2022/10/13 00:48:49;;;;;;;;;40.75;34.00;;;;;;;;5091480;27;45423;-76
2022/10/13 00:51:16;;;;;;;;;40.75;34.50;;;;;;;;5099802;27;46891;-76
2022/10/13 00:53:42;;;;;;;;;43.50;34.75;;;;;;;;5089861;27;45419;-76
2022/10/13 00:56:09;;;;;;;;;37.75;33.00;;;;;;;;5091941;27;45362;-76
2022/10/13 00:58:36;;;;;;;;;37.00;34.25;;;;;;;;5089227;27;45517;-76
2022/10/13 01:01:02;;;;;;;;;38.25;33.50;;;;;;;;5085887;27;45351;-76
2022/10/13 01:03:28;;;;;;;;;42.25;34.00;;;;;;;;5088469;27;45462;-76
2022/10/13 01:05:55;;;;;;;;;39.00;33.25;;;;;;;;5085748;27;45417;-76
2022/10/13 01:08:20;;;;;;;;;41.00;33.00;;;;;;;;5090333;27;45375;-76
2022/10/13 01:10:54;;;;;;;;;37.25;33.50;;;;;;;;5074200;27;48606;-76
2022/10/13 01:13:25;;;;;;;;;39.75;35.00;;;;;;;;5076292;27;45564;-76
2022/10/13 01:15:54;;;;;;;;;47.50;34.25;;;;;;;;5091940;27;45648;-76
2022/10/13 01:18:37;;;;;;;;;37.75;34.25;;;;;;;;5094493;27;45424;-76
2022/10/13 01:21:24;;;;;;;;;40.00;35.00;;;;;;;;5084400;27;45488;-76
2022/10/13 01:23:52;;;;;;;;;32.50;31.00;;;;;;;;5085103;27;45331;-76
2022/10/13 01:26:17;;;;;;;;;37.25;33.00;;;;;;;;5098337;27;45512;-76
2022/10/13 01:28:43;;;;;;;;;36.25;30.50;;;;;;;;5088401;27;45385;-76
2022/10/13 01:31:08;;;;;;;;;35.50;31.50;;;;;;;;5076218;27;47190;-76
2022/10/13 01:33:33;;;;;;;;;37.75;31.75;;;;;;;;5083127;27;45238;-76
2022/10/13 01:36:01;;;;;;;;;46.50;34.50;;;;;;;;5093338;27;45367;-76
2022/10/13 01:38:39;;;;;;;;;31.50;30.50;;;;;;;;5092650;27;45541;-76
2022/10/13 01:41:16;;;;;;;;;42.50;34.25;;;;;;;;5095128;27;45410;-76
2022/10/13 01:43:46;;;;;;;;;41.75;34.25;;;;;;;;5086516;27;45280;-76
2022/10/13 01:46:32;;;;;;;;;39.75;34.00;;;;;;;;5090061;27;45326;-76
2022/10/13 01:48:59;;;;;;;;;44.75;35.75;;;;;;;;5088351;27;45507;-76
2022/10/13 01:51:25;;;;;;;;;41.50;35.25;;;;;;;;5075825;27;47276;-76
2022/10/13 01:53:51;;;;;;;;;36.25;31.50;;;;;;;;5092478;27;45482;-76
2022/10/13 01:56:16;;;;;;;;;37.25;32.50;;;;;;;;5087139;27;45442;-76
2022/10/13 01:58:42;;;;;;;;;38.50;33.50;;;;;;;;5090304;27;45492;-76
2022/10/13 02:01:20;;;;;;;;;34.75;32.00;;;;;;;;5090083;27;45991;-76
2022/10/13 02:03:58;;;;;;;;;31.25;30.75;;;;;;;;5075796;27;45485;-76
2022/10/13 02:06:31;;;;;;;;;34.50;28.25;;;;;;;;5078316;27;45320;-76
2022/10/13 02:09:02;;;;;;;;;30.00;26.75;;;;;;;;5094161;27;45422;-76
2022/10/13 02:11:27;;;;;;;;;32.50;29.50;;;;;;;;5097531;27;45311;-76
2022/10/13 02:13:58;;;;;;;;;29.50;26.50;;;;;;;;5092956;27;45260;-76
2022/10/13 02:16:24;;;;;;;;;29.25;27.25;;;;;;;;5075207;27;45361;-76
2022/10/13 02:18:50;;;;;;;;;25.25;20.50;;;;;;;;5077684;27;47411;-76
2022/10/13 02:21:16;;;;;;;;;31.50;25.00;;;;;;;;5079695;27;45527;-76
2022/10/13 02:23:42;;;;;;;;;23.25;23.25;;;;;;;;5068951;28;45908;-76
2022/10/13 02:26:07;;;;;;;;;23.25;22.75;;;;;;;;5090953;27;45535;-76
2022/10/13 02:28:35;;;;;;;;;20.00;19.33;;;;;;;;5093704;27;45597;-76
2022/10/13 02:31:00;;;;;;;;;19.75;18.75;;;;;;;;5097683;27;47534;-76
2022/10/13 02:33:26;;;;;;;;;21.00;17.33;;;;;;;;5075892;27;45464;-76
2022/10/13 02:35:51;;;;;;;;;18.50;17.50;;;;;;;;5088332;27;45420;-76
2022/10/13 02:38:17;;;;;;;;;15.67;15.00;;;;;;;;5069546;28;45425;-76
2022/10/13 02:40:42;;;;;;;;;15.00;15.00;;;;;;;;5088689;27;45438;-76
2022/10/13 02:43:07;;;;;;;;;13.33;13.33;;;;;;;;5095450;27;45446;-76
2022/10/13 02:45:32;;;;;;;;;21.00;17.00;;;;;;;;5086209;27;45256;-76
2022/10/13 02:47:57;;;;;;;;;18.33;13.67;;;;;;;;5095430;27;45283;-76
2022/10/13 02:50:24;;;;;;;;;14.00;14.00;;;;;;;;5081560;27;46481;-76
2022/10/13 02:52:50;;;;;;;;;14.00;13.33;;;;;;;;5097869;27;45350;-76
2022/10/13 02:55:15;;;;;;;;;17.67;15.67;;;;;;;;5085909;27;45649;-76
2022/10/13 02:57:40;;;;;;;;;16.67;15.00;;;;;;;;5079340;27;46007;-76
2022/10/13 03:00:06;;;;;;;;;17.33;16.00;;;;;;;;5093033;27;45576;-76
2022/10/13 03:02:31;;;;;;;;;15.00;15.00;;;;;;;;5074777;27;45245;-76
2022/10/13 03:04:57;;;;;;;;;19.67;19.00;;;;;;;;5086001;27;45330;-76
2022/10/13 03:07:22;;;;;;;;;18.00;16.33;;;;;;;;5085752;27;45243;-76
2022/10/13 03:09:47;;;;;;;;;15.67;15.67;;;;;;;;5084717;27;46202;-76
2022/10/13 03:12:12;;;;;;;;;16.67;14.33;;;;;;;;5086409;27;45414;-76
2022/10/13 03:14:37;;;;;;;;;19.67;14.33;;;;;;;;5087203;27;45239;-76
2022/10/13 03:17:03;;;;;;;;;19.33;18.00;;;;;;;;5095218;27;46648;-76
2022/10/13 03:19:28;;;;;;;;;21.00;18.00;;;;;;;;5068897;27;45380;-76
2022/10/13 03:21:54;;;;;;;;;17.00;14.67;;;;;;;;5097987;27;45293;-76
2022/10/13 03:24:19;;;;;;;;;18.67;17.00;;;;;;;;5071182;28;45328;-76
2022/10/13 03:26:44;;;;;;;;;14.67;13.00;;;;;;;;5098493;27;45211;-76
2022/10/13 03:29:13;;;;;;;;;17.67;15.00;;;;;;;;5092537;27;45346;-76
2022/10/13 03:31:39;;;;;;;;;20.00;16.67;;;;;;;;5089062;27;45348;-76
2022/10/13 03:34:04;;;;;;;;;16.67;13.67;;;;;;;;5089842;27;45324;-76
2022/10/13 03:36:29;;;;;;;;;17.00;15.33;;;;;;;;5088777;27;44995;-77
2022/10/13 03:38:54;;;;;;;;;16.00;14.33;;;;;;;;5086173;27;46177;-77
2022/10/13 03:41:20;;;;;;;;;19.67;14.33;;;;;;;;5084589;27;45512;-76
2022/10/13 03:43:45;;;;;;;;;15.33;13.67;;;;;;;;5089516;27;45352;-77
2022/10/13 03:46:12;;;;;;;;;19.33;14.67;;;;;;;;5092546;27;45261;-76
2022/10/13 03:48:37;;;;;;;;;14.67;13.67;;;;;;;;5084624;27;46207;-77
2022/10/13 03:51:03;;;;;;;;;15.00;13.00;;;;;;;;5094442;27;45250;-77
2022/10/13 03:53:28;;;;;;;;;17.00;13.67;;;;;;;;5094065;27;45446;-77
2022/10/13 03:55:55;;;;;;;;;13.00;12.33;;;;;;;;5091347;27;45255;-78
2022/10/13 03:58:20;;;;;;;;;17.67;14.00;;;;;;;;5092481;27;45406;-78
2022/10/13 04:00:46;;;;;;;;;16.00;14.00;;;;;;;;5076276;28;45261;-77
2022/10/13 04:03:11;;;;;;;;;17.67;15.33;;;;;;;;5082464;27;45441;-77
2022/10/13 04:05:36;;;;;;;;;19.33;14.33;;;;;;;;5085403;27;45999;-78
2022/10/13 04:08:02;;;;;;;;;17.67;14.33;;;;;;;;5076119;27;46052;-77
2022/10/13 04:10:27;;;;;;;;;18.33;15.00;;;;;;;;5072192;27;45442;-77
2022/10/13 04:12:52;;;;;;;;;21.00;17.75;;;;;;;;5092752;27;45783;-76
2022/10/13 04:15:17;;;;;;;;;20.00;16.33;;;;;;;;5087816;27;45351;-77
2022/10/13 04:17:43;;;;;;;;;22.75;18.25;;;;;;;;5095488;27;46135;-77
2022/10/13 04:20:08;;;;;;;;;17.67;16.00;;;;;;;;5088179;27;45510;-78
2022/10/13 04:22:33;;;;;;;;;18.33;14.33;;;;;;;;5086568;27;45909;-78
2022/10/13 04:24:59;;;;;;;;;16.33;16.33;;;;;;;;5092854;27;45403;-77
2022/10/13 04:27:25;;;;;;;;;17.25;15.25;;;;;;;;5083654;27;47211;-78
2022/10/13 04:29:51;;;;;;;;;15.50;15.50;;;;;;;;5087910;27;45443;-76
2022/10/13 04:32:16;;;;;;;;;18.75;17.00;;;;;;;;5085367;27;45467;-77
2022/10/13 04:34:41;;;;;;;;;23.25;17.00;;;;;;;;5072212;27;46023;-79
2022/10/13 04:37:06;;;;;;;;;18.33;16.00;;;;;;;;5091252;27;47053;-77
2022/10/13 04:39:32;;;;;;;;;16.33;16.33;;;;;;;;5070708;27;45413;-77
2022/10/13 04:41:57;;;;;;;;;15.67;12.67;;;;;;;;5100805;27;45473;-77
2022/10/13 04:44:23;;;;;;;;;13.00;12.33;;;;;;;;5092392;27;45477;-77
2022/10/13 04:46:48;;;;;;;;;12.33;11.67;;;;;;;;5094792;27;45270;-78
2022/10/13 04:49:14;;;;;;;;;17.67;14.00;;;;;;;;5091427;27;45368;-78
2022/10/13 04:51:39;;;;;;;;;13.00;10.00;;;;;;;;5091858;27;45398;-77
2022/10/13 04:54:04;;;;;;;;;11.67;9.67;;;;;;;;5083718;27;45308;-76
2022/10/13 04:56:29;;;;;;;;;13.00;11.67;;;;;;;;5089584;27;45370;-78
2022/10/13 04:58:55;;;;;;;;;13.00;11.00;;;;;;;;5070550;27;45206;-77
2022/10/13 05:01:21;;;;;;;;;14.00;12.33;;;;;;;;5089391;27;45472;-76
2022/10/13 05:03:48;;;;;;;;;14.67;13.00;;;;;;;;5072584;27;46267;-77
2022/10/13 05:06:19;;;;;;;;;12.00;9.67;;;;;;;;5073265;27;48627;-76
2022/10/13 05:08:44;;;;;;;;;14.00;12.33;;;;;;;;5089316;27;45307;-79
2022/10/13 05:11:09;;;;;;;;;12.67;11.33;;;;;;;;5088421;27;45276;-79
2022/10/13 05:13:35;;;;;;;;;13.00;12.00;;;;;;;;5065832;27;45710;-79
2022/10/13 05:16:04;;;;;;;;;16.67;13.00;;;;;;;;5092312;27;45476;-79
2022/10/13 05:18:29;;;;;;;;;14.67;11.33;;;;;;;;5087939;27;45324;-79
2022/10/13 05:20:54;;;;;;;;;12.67;11.33;;;;;;;;5095708;27;45343;-78
2022/10/13 05:23:19;;;;;;;;;13.00;13.00;;;;;;;;5093755;27;45410;-79
2022/10/13 05:25:46;;;;;;;;;13.67;10.00;;;;;;;;5100708;27;45417;-77
2022/10/13 05:28:12;;;;;;;;;15.33;11.00;;;;;;;;5075904;27;45422;-75
2022/10/13 05:30:38;;;;;;;;;16.67;12.67;;;;;;;;5092224;27;45493;-76
2022/10/13 05:33:03;;;;;;;;;13.33;10.67;;;;;;;;5096845;27;45381;-76
2022/10/13 05:35:29;;;;;;;;;12.67;11.00;;;;;;;;5088718;27;46057;-76
2022/10/13 05:37:54;;;;;;;;;10.00;10.00;;;;;;;;5090647;27;45216;-75
2022/10/13 05:40:22;;;;;;;;;8.33;8.33;;;;;;;;5090568;27;45382;-75
2022/10/13 05:42:48;;;;;;;;;9.33;9.33;;;;;;;;5095534;27;45344;-77
2022/10/13 05:45:14;;;;;;;;;12.33;10.33;;;;;;;;5079686;27;46366;-76
2022/10/13 05:47:39;;;;;;;;;11.67;10.67;;;;;;;;5095515;27;45297;-76
2022/10/13 05:50:04;;;;;;;;;11.00;9.00;;;;;;;;5084187;27;45425;-76
2022/10/13 05:52:31;;;;;;;;;13.33;12.67;;;;;;;;5082765;27;45375;-78
2022/10/13 05:54:58;;;;;;;;;12.33;9.33;;;;;;;;5075970;27;46372;-78
2022/10/13 05:57:30;;;;;;;;;7.67;7.67;;;;;;;;5090652;27;45281;-78
2022/10/13 06:00:03;;;;;;;;;8.00;8.00;;;;;;;;5087612;27;45391;-78
2022/10/13 06:02:33;;;;;;;;;16.33;11.00;;;;;;;;5066520;27;46024;-78
2022/10/13 06:05:01;;;;;;;;;9.00;8.67;;;;;;;;5072645;27;46923;-77
2022/10/13 06:07:28;;;;;;;;;11.67;7.67;;;;;;;;5087007;27;45379;-80
2022/10/13 06:09:53;;;;;;;;;12.67;11.00;;;;;;;;5072607;27;45516;-79
2022/10/13 06:12:18;;;;;;;;;8.67;8.00;;;;;;;;5087068;27;45404;-79
2022/10/13 06:14:44;;;;;;;;;15.00;11.67;;;;;;;;5070563;27;46531;-78
2022/10/13 06:17:09;;;;;;;;;13.67;11.33;;;;;;;;5080390;27;45313;-78
2022/10/13 06:19:34;;;;;;;;;12.33;9.00;;;;;;;;5096030;27;45939;-78
2022/10/13 06:21:59;;;;;;;;;10.00;7.67;;;;;;;;5091951;27;45454;-80
2022/10/13 06:24:25;;;;;;;;;9.33;9.00;;;;;;;;5068010;28;46954;-79
2022/10/13 06:26:50;;;;;;;;;11.33;9.00;;;;;;;;5092184;27;45392;-78
2022/10/13 06:29:15;;;;;;;;;10.00;7.00;;;;;;;;5071784;27;45525;-82
2022/10/13 06:31:40;;;;;;;;;8.33;6.67;;;;;;;;5091600;27;45354;-79
2022/10/13 06:34:06;;;;;;;;;8.33;8.33;;;;;;;;5093332;27;45661;-79
2022/10/13 06:36:31;;;;;;;;;9.67;9.00;;;;;;;;5092321;27;45317;-79
2022/10/13 06:38:56;;;;;;;;;10.00;8.33;;;;;;;;5091663;27;45402;-80
2022/10/13 06:41:21;;;;;;;;;9.00;7.67;;;;;;;;5090334;27;45209;-81
2022/10/13 06:43:47;;;;;;;;;9.00;7.67;;;;;;;;5088836;27;45471;-80
2022/10/13 06:46:12;;;;;;;;;7.67;7.67;;;;;;;;5079995;27;45331;-80
2022/10/13 06:48:37;;;;;;;;;17.67;13.33;;;;;;;;5087093;27;45259;-81
2022/10/13 06:51:07;;;;;;;;;8.67;7.67;;;;;;;;5091396;27;45595;-80
2022/10/13 06:53:32;;;;;;;;;10.00;7.00;;;;;;;;5095286;27;46802;-81
2022/10/13 06:56:01;;;;;;;;;10.00;7.33;;;;;;;;5094424;27;45346;-80
2022/10/13 06:58:27;;;;;;;;;12.00;10.00;;;;;;;;5089930;27;45406;-80
2022/10/13 07:00:52;;;;;;;;;9.00;9.00;;;;;;;;5088229;27;45532;-80
2022/10/13 07:03:17;;;;;;;;;13.33;11.00;;;;;;;;5095656;27;45311;-80
2022/10/13 07:05:43;;;;;;;;;12.00;10.33;;;;;;;;5082575;27;45309;-79
2022/10/13 07:08:08;;;;;;;;;10.33;9.67;;;;;;;;5102451;27;45232;-81
2022/10/13 07:10:33;;;;;;;;;10.67;8.33;;;;;;;;5096140;27;45216;-81
2022/10/13 07:12:58;;;;;;;;;11.33;9.00;;;;;;;;5087166;27;46470;-80
2022/10/13 07:15:24;;;;;;;;;11.00;9.33;;;;;;;;5098461;27;45201;-80
2022/10/13 07:17:52;;;;;;;;;9.00;8.00;;;;;;;;5094376;27;45214;-77
2022/10/13 07:20:18;;;;;;;;;9.33;7.00;;;;;;;;5098179;27;44813;-79
2022/10/13 07:22:44;;;;;;;;;8.67;7.67;;;;;;;;5086869;27;45636;-79
2022/10/13 07:25:09;;;;;;;;;7.67;6.67;;;;;;;;5091550;27;45288;-79
2022/10/13 07:27:36;;;;;;;;;10.33;8.00;;;;;;;;5094408;27;45403;-76
2022/10/13 07:30:02;;;;;;;;;12.33;11.00;;;;;;;;5086283;27;45517;-80
2022/10/13 07:32:27;;;;;;;;;9.33;9.33;;;;;;;;5099460;27;45943;-80
2022/10/13 07:34:52;;;;;;;;;8.67;8.67;;;;;;;;5093683;27;45368;-81
2022/10/13 07:37:18;;;;;;;;;9.33;9.33;;;;;;;;5082364;27;45562;-79
2022/10/13 07:39:43;;;;;;;;;10.67;10.00;;;;;;;;5087822;27;45472;-80
2022/10/13 07:42:08;;;;;;;;;14.00;11.00;;;;;;;;5085538;27;45554;-79
2022/10/13 07:44:33;;;;;;;;;11.67;8.00;;;;;;;;5088938;27;45381;-79
2022/10/13 07:46:58;;;;;;;;;8.00;8.00;;;;;;;;5093785;27;45340;-79
2022/10/13 07:49:24;;;;;;;;;9.33;9.33;;;;;;;;5069412;28;45975;-78
2022/10/13 07:51:49;;;;;;;;;10.33;9.33;;;;;;;;5079872;27;45486;-79
2022/10/13 07:54:16;;;;;;;;;9.67;8.00;;;;;;;;5091724;27;45420;-78
2022/10/13 07:56:42;;;;;;;;;10.00;10.00;;;;;;;;5095697;27;45242;-79
2022/10/13 07:59:07;;;;;;;;;11.00;8.00;;;;;;;;5095186;27;45495;-79
2022/10/13 08:01:32;;;;;;;;;14.00;12.00;;;;;;;;5082625;27;47569;-79
2022/10/13 08:03:58;;;;;;;;;13.33;12.00;;;;;;;;5090456;27;45341;-79
2022/10/13 08:06:23;;;;;;;;;18.67;13.00;;;;;;;;5089175;27;45343;-78
2022/10/13 08:08:48;;;;;;;;;9.00;9.00;;;;;;;;5088312;27;45323;-78
2022/10/13 08:11:14;;;;;;;;;11.00;11.00;;;;;;;;5082613;27;46276;-78
2022/10/13 08:13:39;;;;;;;;;12.33;8.67;;;;;;;;5075871;28;45862;-79
2022/10/13 08:16:05;;;;;;;;;9.00;7.33;;;;;;;;5083669;27;45463;-78
2022/10/13 08:18:30;;;;;;;;;12.33;9.00;;;;;;;;5084858;27;45268;-80
2022/10/13 08:20:58;;;;;;;;;9.00;9.00;;;;;;;;5092404;27;45229;-79
2022/10/13 08:23:23;;;;;;;;;11.33;11.33;;;;;;;;5083195;27;45202;-77
2022/10/13 08:25:48;;;;;;;;;11.00;11.00;;;;;;;;5093864;27;45166;-78
2022/10/13 08:28:21;;;;;;;;;11.33;8.00;;;;;;;;5089436;27;45364;-78
2022/10/13 08:30:46;;;;;;;;;12.67;12.67;;;;;;;;5097262;27;46463;-78
2022/10/13 08:33:12;;;;;;;;;10.00;10.00;;;;;;;;5074834;27;45325;-80
2022/10/13 08:35:37;;;;;;;;;11.67;11.67;;;;;;;;5097709;27;45380;-79
2022/10/13 08:38:03;;;;;;;;;10.67;9.00;;;;;;;;5068263;27;45466;-79
2022/10/13 08:40:28;;;;;;;;;11.67;10.33;;;;;;;;5071496;28;48335;-79
2022/10/13 08:42:53;;;;;;;;;15.67;13.33;;;;;;;;5092177;27;47098;-79
2022/10/13 08:45:22;;;;;;;;;8.00;8.00;;;;;;;;5096601;27;45997;-79
2022/10/13 08:48:00;;;;;;;;;8.00;6.67;;;;;;;;5095629;27;45394;-80
2022/10/13 08:50:27;;;;;;;;;5.00;5.00;;;;;;;;5085439;27;45451;-79
2022/10/13 08:53:00;;;;;;;;;7.67;6.33;;;;;;;;5097821;27;45427;-80
2022/10/13 08:55:40;;;;;;;;;6.00;6.00;;;;;;;;5094386;27;45330;-80
2022/10/13 08:58:10;;;;;;;;;8.67;8.00;;;;;;;;5099423;27;45170;-81
2022/10/13 09:00:36;;;;;;;;;7.00;6.00;;;;;;;;5093001;27;45303;-81
2022/10/13 09:03:28;;;;;;;;;4.67;4.67;;;;;;;;5085541;27;45307;-81
2022/10/13 09:06:09;;;;;;;;;10.33;7.00;;;;;;;;5088091;27;45335;-80
2022/10/13 09:08:42;;;;;;;;;7.67;6.00;;;;;;;;5076786;27;46255;-79
2022/10/13 09:11:09;;;;;;;;;9.33;6.67;;;;;;;;5087785;27;46313;-79
2022/10/13 09:13:34;;;;;;;;;6.67;6.67;;;;;;;;5097405;27;45236;-79
2022/10/13 09:15:59;;;;;;;;;10.00;5.33;;;;;;;;5095820;27;45418;-81
2022/10/13 09:18:30;;;;;;;;;6.67;6.00;;;;;;;;5095231;27;45348;-81
2022/10/13 09:21:16;;;;;;;;;5.00;5.00;;;;;;;;5095024;27;46016;-81
2022/10/13 09:23:41;;;;;;;;;5.00;5.00;;;;;;;;5082944;27;45304;-81
2022/10/13 09:26:08;;;;;;;;;6.33;6.00;;;;;;;;5090818;27;45339;-80
2022/10/13 09:28:33;;;;;;;;;6.00;6.00;;;;;;;;5079029;27;45504;-81
2022/10/13 09:31:03;;;;;;;;;6.33;5.00;;;;;;;;5095364;27;45402;-80
2022/10/13 09:33:32;;;;;;;;;5.33;5.00;;;;;;;;5094702;27;45318;-80
2022/10/13 09:35:57;;;;;;;;;5.00;5.00;;;;;;;;5099261;27;45226;-80
2022/10/13 09:38:26;;;;;;;;;4.00;3.00;;;;;;;;5098659;27;45947;-80
2022/10/13 09:41:18;;;;;;;;;4.67;4.67;;;;;;;;5076170;27;46950;-80
2022/10/13 09:43:46;;;;;;;;;7.33;5.00;;;;;;;;5081773;27;45466;-80
2022/10/13 09:46:30;;;;;;;;;11.33;10.00;;;;;;;;5092249;27;45265;-79
2022/10/13 09:48:57;;;;;;;;;7.67;5.00;;;;;;;;5093097;27;45442;-80
2022/10/13 09:51:29;;;;;;;;;3.00;3.00;;;;;;;;5092586;27;45629;-79
2022/10/13 09:53:55;;;;;;;;;5.00;5.00;;;;;;;;5093476;27;45387;-80
2022/10/13 09:56:35;;;;;;;;;8.67;7.33;;;;;;;;5096802;27;45255;-80
2022/10/13 09:59:13;;;;;;;;;5.00;4.67;;;;;;;;5069448;27;46888;-80
2022/10/13 10:01:41;;;;;;;;;6.00;6.00;;;;;;;;5073632;28;48579;-80
2022/10/13 10:04:09;;;;;;;;;6.67;6.00;;;;;;;;5094226;27;45221;-80
2022/10/13 10:06:35;;;;;;;;;6.33;5.00;;;;;;;;5088120;27;45316;-80
2022/10/13 10:09:24;;;;;;;;;5.67;3.00;;;;;;;;5092541;27;45561;-80
2022/10/13 10:11:52;;;;;;;;;5.00;4.00;;;;;;;;5068241;27;46781;-80
2022/10/13 10:14:43;;;;;;;;;5.33;5.00;;;;;;;;5093533;27;45356;-79
2022/10/13 10:17:11;;;;;;;;;6.33;5.00;;;;;;;;5066269;27;44840;-80
2022/10/13 10:19:46;;;;;;;;;6.00;5.00;;;;;;;;5071645;28;45389;-80
2022/10/13 10:22:14;;;;;;;;;5.33;5.33;;;;;;;;5086435;27;45360;-80
2022/10/13 10:24:49;;;;;;;;;9.00;5.67;;;;;;;;5090770;27;45505;-80
2022/10/13 10:27:20;;;;;;;;;9.00;6.33;;;;;;;;5085446;27;45433;-80
2022/10/13 10:29:58;;;;;;;;;5.67;4.67;;;;;;;;5071030;28;46845;-80
2022/10/13 10:32:46;;;;;;;;;6.00;5.00;;;;;;;;5086417;27;46189;-80
2022/10/13 10:35:20;;;;;;;;;7.67;5.33;;;;;;;;5089495;27;45288;-80
2022/10/13 10:37:52;;;;;;;;;9.00;6.67;;;;;;;;5090661;27;45285;-80
2022/10/13 10:40:17;;;;;;;;;9.33;7.00;;;;;;;;5082924;27;46096;-81
2022/10/13 10:42:42;;;;;;;;;5.00;3.67;;;;;;;;5099276;27;46050;-80
2022/10/13 10:45:14;;;;;;;;;5.67;5.00;;;;;;;;5089681;27;45359;-81
2022/10/13 10:47:41;;;;;;;;;9.33;6.33;;;;;;;;5086574;27;45154;-81
2022/10/13 10:50:06;;;;;;;;;5.33;5.00;;;;;;;;5070022;27;46348;-80
2022/10/13 10:52:40;;;;;;;;;4.67;4.67;;;;;;;;5096984;27;45618;-80
2022/10/13 10:55:25;;;;;;;;;5.67;5.67;;;;;;;;5085733;27;45438;-80
2022/10/13 10:57:56;;;;;;;;;6.00;6.00;;;;;;;;5074917;27;45372;-80
2022/10/13 11:00:22;;;;;;;;;4.67;4.67;;;;;;;;5068287;27;46261;-80
2022/10/13 11:03:07;;;;;;;;;4.67;4.00;;;;;;;;5086114;27;45948;-80
2022/10/13 11:05:55;;;;;;;;;4.67;4.67;;;;;;;;5083577;27;45396;-80
2022/10/13 11:08:33;;;;;;;;;4.00;4.00;;;;;;;;5081871;27;46992;-80
2022/10/13 11:11:17;;;;;;;;;7.33;5.00;;;;;;;;5082559;27;45333;-80
2022/10/13 11:13:56;;;;;;;;;4.00;4.00;;;;;;;;5093080;27;45447;-80
2022/10/13 11:16:41;;;;;;;;;5.33;4.67;;;;;;;;5093627;27;45456;-81
2022/10/13 11:19:07;;;;;;;;;5.00;5.00;;;;;;;;5040404;27;45390;-81
2022/10/13 11:21:51;;;;;;;;;6.67;6.00;;;;;;;;5094331;27;45360;-81
2022/10/13 11:24:38;;;;;;;;;4.33;4.33;;;;;;;;5093079;27;45480;-80
2022/10/13 11:27:06;;;;;;;;;8.33;7.00;;;;;;;;5099677;27;45190;-81
2022/10/13 11:29:44;;;;;;;;;5.00;5.00;;;;;;;;5090892;27;45504;-79
2022/10/13 11:35:13;;;;;;;;;8.00;7.00;;;;;;;;5077937;27;45529;-80
2022/10/13 11:37:48;;;;;;;;;7.33;7.00;;;;;;;;5076375;27;45507;-77
2022/10/13 11:40:19;;;;;;;;;9.67;9.00;;;;;;;;5073302;28;45182;-78
2022/10/13 11:42:45;;;;;;;;;10.67;8.00;;;;;;;;5093049;27;45466;-77
2022/10/13 11:45:28;;;;;;;;;10.33;9.00;;;;;;;;5085905;27;45418;-77
2022/10/13 11:48:12;;;;;;;;;7.67;7.67;;;;;;;;5082040;27;45252;-78
2022/10/13 11:50:56;;;;;;;;;11.67;10.33;;;;;;;;5091248;27;45239;-79
2022/10/13 11:53:23;;;;;;;;;12.00;9.67;;;;;;;;5081497;27;45406;-80
2022/10/13 11:55:50;;;;;;;;;13.00;10.00;;;;;;;;5086168;27;45317;-81
2022/10/13 11:58:18;;;;;;;;;8.00;8.00;;;;;;;;5075901;27;45548;-82
2022/10/13 12:00:54;;;;;;;;;9.50;8.00;;;;;;;;5083855;27;45435;-80
2022/10/13 12:03:22;;;;;;;;;12.00;10.33;;;;;;;;5079873;27;45351;-79
2022/10/13 12:05:48;;;;;;;;;9.67;8.00;;;;;;;;5087074;27;46519;-79
2022/10/13 12:08:14;;;;;;;;;12.00;11.00;;;;;;;;5082482;27;45387;-79
2022/10/13 12:10:39;;;;;;;;;10.67;9.00;;;;;;;;5091606;27;45350;-76
2022/10/13 12:13:05;;;;;;;;;11.00;9.67;;;;;;;;5082924;27;45881;-78
2022/10/13 12:15:31;;;;;;;;;10.33;9.33;;;;;;;;5090530;27;45647;-79
2022/10/13 12:17:56;;;;;;;;;10.00;10.00;;;;;;;;5096002;27;45212;-79
2022/10/13 12:20:23;;;;;;;;;11.67;10.00;;;;;;;;5065157;27;45374;-77
2022/10/13 12:22:52;;;;;;;;;10.33;10.33;;;;;;;;5094415;27;45363;-78
2022/10/13 12:25:18;;;;;;;;;16.67;11.67;;;;;;;;5089705;27;45441;-78
2022/10/13 12:27:52;;;;;;;;;12.33;12.33;;;;;;;;5075037;27;45172;-81
2022/10/13 12:30:24;;;;;;;;;13.33;10.00;;;;;;;;5090365;27;45273;-80
2022/10/13 12:32:50;;;;;;;;;10.67;10.67;;;;;;;;5073662;27;45365;-79
2022/10/13 12:35:21;;;;;;;;;11.67;11.67;;;;;;;;5088446;27;47039;-79
2022/10/13 12:37:47;;;;;;;;;10.00;8.67;;;;;;;;5069752;27;45245;-77
2022/10/13 12:40:14;;;;;;;;;14.33;9.00;;;;;;;;5085675;27;45500;-77
2022/10/13 12:42:40;;;;;;;;;8.00;8.00;;;;;;;;5092554;27;45414;-77
2022/10/13 12:45:05;;;;;;;;;9.33;7.67;;;;;;;;5088130;27;46445;-77
2022/10/13 12:47:50;;;;;;;;;8.67;8.67;;;;;;;;5089078;27;45257;-77
2022/10/13 12:50:27;;;;;;;;;9.67;8.00;;;;;;;;5097979;27;45375;-78
2022/10/13 12:52:55;;;;;;;;;8.67;8.67;;;;;;;;5094669;27;45455;-77
2022/10/13 12:55:21;;;;;;;;;5.00;5.00;;;;;;;;5078934;27;47402;-78
2022/10/13 12:57:47;;;;;;;;;8.67;8.67;;;;;;;;5088807;27;45235;-82
2022/10/13 13:00:15;;;;;;;;;11.00;10.67;;;;;;;;5095589;27;45327;-79
2022/10/13 13:02:41;;;;;;;;;8.00;7.00;;;;;;;;5083305;27;45297;-78
2022/10/13 13:05:26;;;;;;;;;12.67;10.67;;;;;;;;5079434;27;47028;-77
2022/10/13 13:07:51;;;;;;;;;7.67;6.00;;;;;;;;5085609;27;45345;-76
2022/10/13 13:10:17;;;;;;;;;8.67;8.67;;;;;;;;5095934;27;45332;-76
2022/10/13 13:12:43;;;;;;;;;7.00;7.00;;;;;;;;5075081;27;45316;-77
2022/10/13 13:15:17;;;;;;;;;6.33;5.33;;;;;;;;5093344;27;46707;-77
2022/10/13 13:17:44;;;;;;;;;9.00;4.67;;;;;;;;5089559;27;45320;-75
2022/10/13 13:20:41;;;;;;;;;6.33;6.33;;;;;;;;5092999;27;45507;-76
2022/10/13 13:23:06;;;;;;;;;9.67;6.67;;;;;;;;5049427;27;45597;-77
2022/10/13 13:25:32;;;;;;;;;9.00;8.00;;;;;;;;5093858;27;45369;-77
2022/10/13 13:27:57;;;;;;;;;6.33;6.33;;;;;;;;5075457;27;44772;-78
2022/10/13 13:30:23;;;;;;;;;3.33;3.33;;;;;;;;5093710;27;45189;-77
2022/10/13 13:32:48;;;;;;;;;7.67;6.00;;;;;;;;5100206;27;45295;-77
2022/10/13 13:35:13;;;;;;;;;5.00;5.00;;;;;;;;5096246;27;45438;-78
2022/10/13 13:37:40;;;;;;;;;5.33;4.00;;;;;;;;5097472;27;45409;-78
2022/10/13 13:40:06;;;;;;;;;9.33;7.00;;;;;;;;5088722;27;45551;-78
2022/10/13 13:42:31;;;;;;;;;4.00;4.00;;;;;;;;5086477;27;46790;-78
2022/10/13 13:44:56;;;;;;;;;5.00;5.00;;;;;;;;5087634;27;45861;-78
2022/10/13 13:47:23;;;;;;;;;5.00;5.00;;;;;;;;5085690;27;45394;-78
2022/10/13 13:49:49;;;;;;;;;7.00;5.67;;;;;;;;5094832;27;45290;-78
2022/10/13 13:52:15;;;;;;;;;4.33;4.00;;;;;;;;5078173;27;45910;-79
2022/10/13 13:54:41;;;;;;;;;6.33;5.33;;;;;;;;5096713;27;45279;-79
2022/10/13 13:57:06;;;;;;;;;6.67;5.33;;;;;;;;5095013;27;45352;-79
2022/10/13 13:59:31;;;;;;;;;8.00;7.00;;;;;;;;5089506;27;45379;-79
2022/10/13 14:01:56;;;;;;;;;8.67;6.00;;;;;;;;5086039;27;45216;-78
2022/10/13 14:04:22;;;;;;;;;7.00;6.00;;;;;;;;5088329;27;45266;-78
2022/10/13 14:06:47;;;;;;;;;8.00;6.33;;;;;;;;5086356;27;45275;-78
2022/10/13 14:09:12;;;;;;;;;8.33;7.33;;;;;;;;5089788;27;45220;-78
2022/10/13 14:11:37;;;;;;;;;6.33;6.00;;;;;;;;5088505;27;45301;-78
2022/10/13 14:14:02;;;;;;;;;6.67;6.67;;;;;;;;5091325;27;45433;-79
2022/10/13 14:16:28;;;;;;;;;8.00;7.33;;;;;;;;5100567;27;45518;-79
2022/10/13 14:18:55;;;;;;;;;9.67;8.33;;;;;;;;5090826;27;45481;-79
2022/10/13 14:21:20;;;;;;;;;7.33;7.33;;;;;;;;5098492;27;45426;-78
2022/10/13 14:23:45;;;;;;;;;10.00;8.67;;;;;;;;5094432;27;45701;-78
2022/10/13 14:26:11;;;;;;;;;9.33;8.00;;;;;;;;5090497;27;45299;-78
2022/10/13 14:28:38;;;;;;;;;8.33;7.33;;;;;;;;5090467;27;45384;-78
2022/10/13 14:31:05;;;;;;;;;8.33;8.33;;;;;;;;5093705;27;45467;-78
2022/10/13 14:33:30;;;;;;;;;9.67;8.33;;;;;;;;5073035;28;45270;-78
2022/10/13 14:35:59;;;;;;;;;8.33;8.33;;;;;;;;5077053;27;45168;-78
2022/10/13 14:38:25;;;;;;;;;10.67;8.00;;;;;;;;5076500;28;45375;-78